Time;durP1;ratioP1;P1;durP2;ratioP2;P2;SDS_P1;SDS_P2;PMS_P1;PMS_P2;Temp;Humidity;BMP_temperature;BMP_pressure;BME280_temperature;BME280_humidity;BME280_pressure;Samples;Min_cycle;Max_cycle;Signal;HPM_P1;HPM_P2
2021/07/03 01:12:57;;;;;;;8.73;4.97;;;12.50;99.90;;;;;;1784545;23;22526;31
2021/07/03 01:15:23;;;;;;;4.63;3.60;;;12.50;99.90;;;;;;4919738;28;21960;-88
2021/07/03 01:17:50;;;;;;;5.83;4.07;;;12.60;99.90;;;;;;4939332;28;20607;-88
2021/07/03 01:20:17;;;;;;;3.17;2.87;;;12.50;99.90;;;;;;4939940;28;20221;-87
2021/07/03 01:22:45;;;;;;;3.50;3.20;;;12.40;99.90;;;;;;4944799;28;20229;-88
2021/07/03 01:25:12;;;;;;;16.87;3.33;;;12.40;99.90;;;;;;4942995;28;20288;-88
2021/07/03 01:27:38;;;;;;;5.03;4.43;;;12.30;99.90;;;;;;4942951;28;20288;-87
2021/07/03 01:30:07;;;;;;;6.90;4.80;;;12.30;99.90;;;;;;4942855;28;20293;-88
2021/07/03 01:32:33;;;;;;;4.63;3.93;;;12.40;99.90;;;;;;4943854;28;20196;-87
2021/07/03 01:34:59;;;;;;;4.13;3.17;;;12.30;99.90;;;;;;4957504;28;20640;-88
2021/07/03 01:37:25;;;;;;;3.17;2.87;;;12.30;99.90;;;;;;4941624;28;20220;-88
2021/07/03 01:39:51;;;;;;;3.57;2.57;;;12.30;99.90;;;;;;4950908;28;20635;-88
2021/07/03 01:42:17;;;;;;;2.93;2.40;;;12.20;99.90;;;;;;4940518;28;20252;-88
2021/07/03 01:44:45;;;;;;;4.60;3.20;;;12.10;99.90;;;;;;4958093;28;20236;-89
2021/07/03 01:47:11;;;;;;;5.00;3.40;;;12.00;99.90;;;;;;4942895;28;20569;-90
2021/07/03 01:49:41;;;;;;;13.40;4.03;;;12.00;99.90;;;;;;4940677;28;20239;-90
2021/07/03 01:52:07;;;;;;;33.30;4.50;;;12.00;99.90;;;;;;4956866;28;20228;-88
2021/07/03 01:54:34;;;;;;;8.70;3.40;;;12.00;99.90;;;;;;4951170;28;20216;-89
2021/07/03 01:57:00;;;;;;;18.57;3.57;;;12.00;99.90;;;;;;4958006;28;20194;-88
2021/07/03 01:59:28;;;;;;;8.27;3.33;;;11.90;99.90;;;;;;4941619;29;20197;-90
2021/07/03 02:01:55;;;;;;;6.10;4.00;;;11.90;99.90;;;;;;4957425;28;20252;-89
2021/07/03 02:04:21;;;;;;;4.03;3.40;;;11.90;99.90;;;;;;4957209;28;21036;-90
2021/07/03 02:06:47;;;;;;;5.63;3.53;;;12.00;99.90;;;;;;4942882;28;20229;-87
2021/07/03 02:09:14;;;;;;;4.50;4.03;;;12.00;99.90;;;;;;4956850;28;20217;-89
2021/07/03 02:11:40;;;;;;;4.50;4.00;;;12.00;99.90;;;;;;4942987;28;20205;-89
2021/07/03 02:14:06;;;;;;;5.37;4.87;;;12.10;99.90;;;;;;4943051;28;20240;-89
2021/07/03 02:16:32;;;;;;;6.63;5.60;;;12.20;99.90;;;;;;4941556;28;20213;-89
2021/07/03 02:18:58;;;;;;;4.43;3.43;;;12.30;99.90;;;;;;4942245;28;20284;-89
2021/07/03 02:21:24;;;;;;;3.23;2.47;;;12.20;99.90;;;;;;4943313;28;20229;-89
2021/07/03 02:23:50;;;;;;;3.23;2.93;;;12.00;99.90;;;;;;4943133;28;20193;-89
2021/07/03 02:26:15;;;;;;;15.07;4.03;;;11.80;99.90;;;;;;4941306;28;20225;-89
2021/07/03 02:28:41;;;;;;;3.03;2.73;;;11.80;99.90;;;;;;4957320;28;20812;-89
2021/07/03 02:31:07;;;;;;;3.63;3.00;;;11.80;99.90;;;;;;4945242;28;20296;-89
2021/07/03 02:33:33;;;;;;;3.50;3.10;;;11.90;99.90;;;;;;4960674;28;20225;-89
2021/07/03 02:35:58;;;;;;;4.47;2.83;;;11.90;99.90;;;;;;4961136;28;20751;-89
2021/07/03 02:38:24;;;;;;;5.27;3.47;;;11.90;99.90;;;;;;4945054;28;20219;-90
2021/07/03 02:40:51;;;;;;;4.00;3.57;;;11.90;99.90;;;;;;4944649;28;20221;-89
2021/07/03 02:43:16;;;;;;;3.47;3.17;;;11.90;99.90;;;;;;4944372;28;20244;-89
2021/07/03 02:45:42;;;;;;;3.43;3.13;;;11.80;99.90;;;;;;4960190;28;20252;-89
2021/07/03 02:48:08;;;;;;;2.90;2.60;;;11.70;99.90;;;;;;4960131;28;20201;-89
2021/07/03 02:50:34;;;;;;;3.10;2.73;;;11.60;99.90;;;;;;4946004;28;20259;-90
2021/07/03 02:53:00;;;;;;;3.00;2.80;;;11.60;99.90;;;;;;4952457;28;20592;-89
2021/07/03 02:55:27;;;;;;;2.63;2.43;;;11.70;99.90;;;;;;4945590;28;20256;-88
2021/07/03 02:57:53;;;;;;;2.73;2.53;;;11.70;99.90;;;;;;4951899;28;20243;-89
2021/07/03 03:00:19;;;;;;;4.37;3.33;;;11.60;99.90;;;;;;4960530;28;20233;-90
2021/07/03 03:02:45;;;;;;;3.17;2.57;;;11.70;99.90;;;;;;4945017;28;20643;-90
2021/07/03 03:05:13;;;;;;;3.70;3.40;;;11.80;99.90;;;;;;4967499;28;20239;-89
2021/07/03 03:07:40;;;;;;;4.37;3.60;;;11.90;99.90;;;;;;4976884;28;20213;-89
2021/07/03 03:10:09;;;;;;;6.63;4.20;;;11.90;99.90;;;;;;4946149;28;20340;-90
2021/07/03 03:12:35;;;;;;;5.57;4.20;;;12.00;99.90;;;;;;4960571;28;20597;-88
2021/07/03 03:15:01;;;;;;;5.33;4.33;;;12.20;99.90;;;;;;4944137;28;20244;-90
2021/07/03 03:17:27;;;;;;;8.37;5.13;;;12.40;99.90;;;;;;4944785;28;20205;-89
2021/07/03 03:19:52;;;;;;;10.87;4.67;;;12.50;99.90;;;;;;4944743;28;20225;-89
2021/07/03 03:22:18;;;;;;;4.83;3.53;;;12.50;99.90;;;;;;4944638;28;20608;-89
2021/07/03 03:24:45;;;;;;;8.50;4.13;;;12.20;99.90;;;;;;4945561;28;20225;-90
2021/07/03 03:27:12;;;;;;;9.17;3.13;;;12.00;99.90;;;;;;4959926;28;20602;-90
2021/07/03 03:29:38;;;;;;;19.63;3.07;;;11.80;99.90;;;;;;4951812;28;20225;-89
2021/07/03 03:32:04;;;;;;;3.63;2.27;;;11.70;99.90;;;;;;4944550;28;20995;-90
2021/07/03 03:34:30;;;;;;;3.00;2.70;;;11.50;99.90;;;;;;4959592;28;20296;-90
2021/07/03 03:36:56;;;;;;;9.20;2.73;;;11.40;99.90;;;;;;4959714;28;20671;-89
2021/07/03 03:39:21;;;;;;;17.90;3.03;;;11.40;99.90;;;;;;4943271;28;20224;-89
2021/07/03 03:41:47;;;;;;;12.27;3.27;;;11.40;99.90;;;;;;4945270;28;20189;-89
2021/07/03 03:44:13;;;;;;;6.00;2.63;;;11.50;99.90;;;;;;4935976;28;20311;-89
2021/07/03 03:46:39;;;;;;;34.53;3.00;;;11.40;99.90;;;;;;4943795;28;20249;-90
2021/07/03 03:49:04;;;;;;;2.57;2.37;;;11.40;99.90;;;;;;4945238;28;20237;-88
2021/07/03 03:51:30;;;;;;;3.23;2.50;;;11.40;99.90;;;;;;4944126;28;20225;-89
2021/07/03 03:53:56;;;;;;;17.73;2.60;;;11.40;99.90;;;;;;4944179;29;20288;-89
2021/07/03 03:56:22;;;;;;;7.43;2.50;;;11.40;99.90;;;;;;4945017;28;20264;-89
2021/07/03 03:58:47;;;;;;;2.87;2.40;;;11.50;99.90;;;;;;4959669;28;20571;-90
2021/07/03 04:01:13;;;;;;;16.30;3.13;;;11.60;99.90;;;;;;4943698;28;20225;-90
2021/07/03 04:03:39;;;;;;;11.70;3.20;;;11.70;99.90;;;;;;4958858;28;20224;-90
2021/07/03 04:06:05;;;;;;;24.77;3.77;;;11.80;99.90;;;;;;4959481;28;20205;-90
2021/07/03 04:08:31;;;;;;;4.37;3.20;;;11.90;99.90;;;;;;4959867;28;20185;-89
2021/07/03 04:10:57;;;;;;;4.17;3.63;;;11.90;99.90;;;;;;4943356;28;20722;-89
2021/07/03 04:13:22;;;;;;;9.27;3.67;;;12.10;99.90;;;;;;4942333;28;20532;-90
2021/07/03 04:15:48;;;;;;;8.00;4.00;;;12.30;99.90;;;;;;4944287;28;20220;-90
2021/07/03 04:18:14;;;;;;;6.00;2.63;;;12.40;99.90;;;;;;4943239;28;20197;-91
2021/07/03 04:20:40;;;;;;;3.37;3.07;;;12.50;99.90;;;;;;4959895;28;20252;-90
2021/07/03 04:23:06;;;;;;;7.00;2.90;;;12.30;99.90;;;;;;4959194;28;20221;-89
2021/07/03 04:25:31;;;;;;;2.77;2.53;;;12.40;99.90;;;;;;4944386;28;20221;-89
2021/07/03 04:27:57;;;;;;;3.40;2.90;;;12.40;99.90;;;;;;4959607;28;20233;-89
2021/07/03 04:30:23;;;;;;;7.03;3.43;;;12.50;99.90;;;;;;4943260;28;20228;-90
2021/07/03 04:32:49;;;;;;;3.57;3.23;;;12.70;99.90;;;;;;4963796;28;20186;-90
2021/07/03 04:35:16;;;;;;;3.37;3.07;;;12.70;99.90;;;;;;4948521;28;20220;-89
2021/07/03 04:37:42;;;;;;;14.13;3.40;;;12.90;99.90;;;;;;4952025;28;20220;-89
2021/07/03 04:40:09;;;;;;;44.30;4.40;;;13.10;99.90;;;;;;4965126;28;20231;-89
2021/07/03 04:42:35;;;;;;;3.23;2.93;;;13.30;99.90;;;;;;4965755;28;20248;-89
2021/07/03 04:45:01;;;;;;;7.30;3.03;;;13.50;99.90;;;;;;4948941;28;20435;-90
2021/07/03 04:47:27;;;;;;;12.67;4.30;;;13.50;99.90;;;;;;4949592;29;20642;-90
2021/07/03 04:49:53;;;;;;;9.20;2.77;;;13.60;99.90;;;;;;4949142;28;20228;-88
2021/07/03 04:52:18;;;;;;;11.87;3.47;;;13.80;99.90;;;;;;4948389;28;20496;-88
2021/07/03 04:54:44;;;;;;;4.07;2.77;;;14.10;99.90;;;;;;4948555;28;20228;-90
2021/07/03 04:57:13;;;;;;;3.37;3.03;;;14.30;99.90;;;;;;4949967;28;20454;-90
2021/07/03 04:59:43;;;;;;;10.03;3.70;;;14.40;99.90;;;;;;4966048;28;20193;-89
2021/07/03 05:02:11;;;;;;;6.13;4.00;;;14.50;99.90;;;;;;4950664;28;20225;-90
2021/07/03 05:04:38;;;;;;;5.80;3.10;;;14.70;99.90;;;;;;4964166;28;20253;-89
2021/07/03 05:07:04;;;;;;;4.03;3.47;;;14.90;99.90;;;;;;4964762;28;20244;-91
2021/07/03 05:09:31;;;;;;;5.17;4.10;;;15.00;99.90;;;;;;4944924;28;21108;-90
2021/07/03 05:11:57;;;;;;;6.07;4.50;;;15.20;99.90;;;;;;4945166;28;20758;-89
2021/07/03 05:14:23;;;;;;;5.70;4.23;;;15.40;99.90;;;;;;4942817;28;20750;-91
2021/07/03 05:16:49;;;;;;;7.20;4.57;;;15.50;99.90;;;;;;4960441;28;20221;-90
2021/07/03 05:19:15;;;;;;;6.90;4.70;;;15.60;99.90;;;;;;4943994;28;20738;-91
2021/07/03 05:21:41;;;;;;;8.33;5.03;;;16.30;99.90;;;;;;4944699;28;20276;-88
2021/07/03 05:24:07;;;;;;;6.97;4.40;;;17.20;99.90;;;;;;4957976;28;20189;-89
2021/07/03 05:26:33;;;;;;;7.47;4.80;;;17.20;99.90;;;;;;4944241;28;20652;-89
2021/07/03 05:28:59;;;;;;;7.67;5.33;;;17.20;99.90;;;;;;4943174;28;21329;-89
2021/07/03 05:31:25;;;;;;;6.50;4.33;;;17.50;99.90;;;;;;4943797;28;20237;-88
2021/07/03 05:33:51;;;;;;;7.23;4.80;;;17.80;99.90;;;;;;4953533;28;20217;-88
2021/07/03 05:36:16;;;;;;;7.23;5.03;;;18.30;99.90;;;;;;4938604;28;20200;-89
2021/07/03 05:38:44;;;;;;;4.87;4.37;;;20.10;99.90;;;;;;4960507;28;20652;-89
2021/07/03 05:41:13;;;;;;;6.47;3.60;;;22.10;99.90;;;;;;4944657;28;20221;-90
2021/07/03 05:43:39;;;;;;;6.63;3.60;;;23.90;99.90;;;;;;4946060;28;20213;-91
2021/07/03 05:46:06;;;;;;;4.63;3.40;;;23.90;99.90;;;;;;4945869;28;20217;-91
2021/07/03 05:48:34;;;;;;;8.17;3.67;;;23.40;99.90;;;;;;4963391;28;20368;-90
2021/07/03 05:51:00;;;;;;;4.30;3.47;;;22.90;99.90;;;;;;4960291;28;20585;-91
2021/07/03 05:53:25;;;;;;;4.80;4.13;;;23.00;99.90;;;;;;4945159;28;20193;-90
2021/07/03 05:55:51;;;;;;;5.33;3.97;;;23.00;99.90;;;;;;4944013;28;20248;-91
2021/07/03 05:58:17;;;;;;;7.23;4.63;;;23.90;99.90;;;;;;4959274;28;20324;-92
2021/07/03 06:00:43;;;;;;;7.38;4.10;;;24.00;99.90;;;;;;4943204;28;20225;-92
2021/07/03 06:03:08;;;;;;;4.90;4.25;;;24.70;99.90;;;;;;4949738;28;21096;-90
2021/07/03 06:05:34;;;;;;;4.72;3.70;;;25.20;99.90;;;;;;4962741;28;20193;-90
2021/07/03 06:08:00;;;;;;;6.40;3.85;;;24.90;99.90;;;;;;4948038;28;20233;-91
2021/07/03 06:10:26;;;;;;;6.20;3.60;;;24.70;99.90;;;;;;4946284;28;20229;-90
2021/07/03 06:12:51;;;;;;;4.35;3.95;;;23.30;99.90;;;;;;4945673;28;20267;-89
2021/07/03 06:15:17;;;;;;;5.13;3.72;;;22.80;99.90;;;;;;4944952;28;20257;-87
2021/07/03 06:17:43;;;;;;;4.80;3.85;;;23.10;99.90;;;;;;4945314;28;20201;-89
2021/07/03 06:20:10;;;;;;;4.75;3.38;;;23.70;99.90;;;;;;4944668;28;20229;-88
2021/07/03 06:22:37;;;;;;;6.25;3.80;;;23.80;99.90;;;;;;4945813;28;20209;-87
2021/07/03 06:25:05;;;;;;;4.78;4.05;;;22.90;99.90;;;;;;4946513;28;20217;-88
2021/07/03 06:27:32;;;;;;;5.90;3.65;;;22.30;99.90;;;;;;4961574;28;20249;-90
2021/07/03 06:29:58;;;;;;;3.92;3.25;;;22.40;99.90;;;;;;4960960;28;20311;-90
2021/07/03 06:32:24;;;;;;;7.00;3.85;;;22.10;99.90;;;;;;4944460;28;20659;-88
2021/07/03 06:34:50;;;;;;;7.10;3.45;;;21.30;99.90;;;;;;4943070;28;20300;-89
2021/07/03 06:37:16;;;;;;;4.72;3.03;;;20.80;99.90;;;;;;4959672;28;20261;-91
2021/07/03 06:39:43;;;;;;;4.63;2.75;;;21.20;99.90;;;;;;4945779;28;20925;-89
2021/07/03 06:42:10;;;;;;;3.80;3.50;;;21.50;99.90;;;;;;4944448;28;20205;-89
2021/07/03 06:44:35;;;;;;;4.55;3.80;;;22.40;99.90;;;;;;4945892;28;20197;-90
2021/07/03 06:47:01;;;;;;;3.83;3.25;;;23.10;99.90;;;;;;4944427;28;20325;-89
2021/07/03 06:49:27;;;;;;;5.05;3.63;;;23.60;99.90;;;;;;4945544;28;20237;-90
2021/07/03 06:51:53;;;;;;;4.97;3.05;;;23.70;99.90;;;;;;4943918;28;20221;-90
2021/07/03 06:54:18;;;;;;;4.65;3.47;;;23.40;99.90;;;;;;4956116;28;20700;-90
2021/07/03 06:56:44;;;;;;;4.65;3.30;;;22.30;99.90;;;;;;4959794;28;20197;-88
2021/07/03 06:59:10;;;;;;;4.72;3.78;;;21.70;99.90;;;;;;4943549;28;20229;-89
2021/07/03 07:01:36;;;;;;;3.90;3.20;;;21.60;99.90;;;;;;4960075;28;20527;-88
2021/07/03 07:04:02;;;;;;;7.28;3.58;;;21.20;99.90;;;;;;4945253;28;20641;-93
2021/07/03 07:06:28;;;;;;;5.32;3.22;;;20.60;99.90;;;;;;4945845;28;20217;-91
2021/07/03 07:08:54;;;;;;;4.73;3.43;;;20.20;99.90;;;;;;4945928;28;20205;-89
2021/07/03 07:11:19;;;;;;;7.03;3.30;;;20.00;99.90;;;;;;4930618;28;20691;-91
2021/07/03 07:13:45;;;;;;;3.67;2.77;;;20.50;99.90;;;;;;4943768;28;20679;-89
2021/07/03 07:16:11;;;;;;;6.63;3.77;;;20.50;99.90;;;;;;4941073;28;20225;-89
2021/07/03 07:18:37;;;;;;;6.03;2.57;;;20.70;99.90;;;;;;4942423;28;20335;-89
2021/07/03 07:21:03;;;;;;;3.90;2.37;;;21.70;99.90;;;;;;4942223;28;20746;-88
2021/07/03 07:23:29;;;;;;;5.10;3.20;;;22.40;99.90;;;;;;4944885;28;20205;-88
2021/07/03 07:25:54;;;;;;;5.57;2.50;;;22.60;99.90;;;;;;4957756;28;20622;-90
2021/07/03 07:28:20;;;;;;;3.80;2.97;;;22.90;99.90;;;;;;4959157;28;20225;-87
2021/07/03 07:30:46;;;;;;;10.55;2.88;;;23.60;99.90;;;;;;4959018;28;20784;-91
2021/07/03 07:33:12;;;;;;;4.10;2.58;;;23.90;99.90;;;;;;4962227;28;20201;-86
2021/07/03 07:35:37;;;;;;;5.40;2.80;;;23.80;99.90;;;;;;4946308;28;20189;-92
2021/07/03 07:38:03;;;;;;;5.10;3.25;;;24.70;99.90;;;;;;4946661;28;20233;-90
2021/07/03 07:40:29;;;;;;;5.20;2.83;;;24.60;99.90;;;;;;4949536;28;20217;-91
2021/07/03 07:42:55;;;;;;;4.20;3.80;;;24.80;99.90;;;;;;4948994;28;20578;-93
2021/07/03 07:45:20;;;;;;;3.90;2.85;;;24.20;99.90;;;;;;4948805;28;20217;-91
2021/07/03 07:47:47;;;;;;;3.33;2.67;;;24.70;99.90;;;;;;4950584;29;20280;-93
2021/07/03 07:50:13;;;;;;;5.13;3.42;;;25.10;99.90;;;;;;4963443;28;20260;-92
2021/07/03 07:52:39;;;;;;;6.53;3.25;;;24.90;99.90;;;;;;4963661;28;20629;-92
2021/07/03 07:55:05;;;;;;;4.68;3.13;;;24.70;99.90;;;;;;4947580;28;20548;-92
2021/07/03 07:57:31;;;;;;;3.95;2.65;;;24.20;99.90;;;;;;4946512;28;20305;-91
2021/07/03 07:59:57;;;;;;;3.33;3.03;;;24.10;99.90;;;;;;4962315;28;20279;-92
2021/07/03 08:02:22;;;;;;;6.18;3.15;;;24.00;99.90;;;;;;4946537;28;20299;-90
2021/07/03 08:04:48;;;;;;;3.40;2.92;;;24.60;99.90;;;;;;4946260;28;20213;-91
2021/07/03 08:07:14;;;;;;;4.47;3.00;;;24.40;99.90;;;;;;4944966;28;20244;-90
2021/07/03 08:09:44;;;;;;;4.53;2.90;;;23.70;99.90;;;;;;4960599;28;20292;-89
2021/07/03 08:12:11;;;;;;;5.20;2.85;;;23.50;99.90;;;;;;4943940;28;20228;-89
2021/07/03 08:14:36;;;;;;;5.63;3.13;;;23.40;99.90;;;;;;4945519;28;20585;-88
2021/07/03 08:17:02;;;;;;;5.60;3.08;;;23.40;99.90;;;;;;4943396;28;20228;-90
2021/07/03 08:19:28;;;;;;;4.90;2.92;;;23.30;99.90;;;;;;4942769;28;20224;-90
2021/07/03 08:21:57;;;;;;;4.47;2.88;;;23.80;99.90;;;;;;4942694;28;20328;-91
2021/07/03 08:24:24;;;;;;;3.17;2.47;;;24.10;99.90;;;;;;4944282;28;20258;-90
2021/07/03 08:26:50;;;;;;;4.57;2.60;;;24.20;99.90;;;;;;4959361;28;20202;-90
2021/07/03 08:29:16;;;;;;;5.88;3.22;;;24.00;99.90;;;;;;4939700;28;20239;-90
2021/07/03 08:31:41;;;;;;;3.47;2.92;;;24.20;99.90;;;;;;4955572;28;20221;-90
2021/07/03 08:34:07;;;;;;;7.00;3.53;;;24.00;99.90;;;;;;4957851;28;20229;-90
2021/07/03 08:36:33;;;;;;;7.35;3.67;;;23.40;99.90;;;;;;4942579;28;20675;-90
2021/07/03 08:38:59;;;;;;;5.55;3.15;;;23.40;99.90;;;;;;4941246;28;20647;-92
2021/07/03 08:41:26;;;;;;;4.75;3.08;;;23.20;99.90;;;;;;4941067;28;20209;-90
2021/07/03 08:43:52;;;;;;;5.93;3.50;;;23.00;99.90;;;;;;4948325;28;20248;-89
2021/07/03 08:46:19;;;;;;;4.35;3.63;;;22.70;99.90;;;;;;4957117;28;20331;-90
2021/07/03 08:48:54;;;;;;;7.70;3.70;;;22.70;99.90;;;;;;4941884;28;20234;-90
2021/07/03 08:51:22;;;;;;;5.57;3.72;;;23.10;99.90;;;;;;4957714;28;20228;-92
2021/07/03 08:53:48;;;;;;;4.07;3.30;;;22.90;99.90;;;;;;4943122;28;20220;-89
2021/07/03 08:56:14;;;;;;;7.93;3.28;;;23.10;99.90;;;;;;4959430;28;20224;-90
2021/07/03 08:58:40;;;;;;;4.88;3.28;;;23.80;99.90;;;;;;4934417;28;20205;-91
2021/07/03 09:01:06;;;;;;;6.43;3.97;;;23.60;99.90;;;;;;4944749;28;20528;-89
2021/07/03 09:03:32;;;;;;;4.20;3.10;;;23.80;99.90;;;;;;4959056;28;21474;-89
2021/07/03 09:06:00;;;;;;;4.88;3.33;;;24.60;99.90;;;;;;4944304;28;20189;-88
2021/07/03 09:08:27;;;;;;;6.25;4.25;;;25.40;99.90;;;;;;4958472;28;20185;-91
2021/07/03 09:11:07;;;;;;;8.63;4.15;;;25.40;99.90;;;;;;4941962;28;20233;-90
2021/07/03 09:13:35;;;;;;;5.75;4.20;;;24.90;99.90;;;;;;4950576;28;20267;-89
2021/07/03 09:16:01;;;;;;;7.05;4.03;;;24.60;99.90;;;;;;4939776;28;20249;-88
2021/07/03 09:18:31;;;;;;;7.13;4.35;;;24.40;99.90;;;;;;4941641;28;20236;-89
2021/07/03 09:21:07;;;;;;;6.82;4.15;;;23.40;99.90;;;;;;4958197;28;20218;-90
2021/07/03 09:23:39;;;;;;;9.13;4.03;;;23.40;99.90;;;;;;4943335;28;20217;-92
2021/07/03 09:26:08;;;;;;;5.47;3.28;;;23.40;99.90;;;;;;4954327;28;20220;-90
2021/07/03 09:28:40;;;;;;;7.00;4.40;;;23.20;99.90;;;;;;4957670;28;20225;-91
2021/07/03 09:31:08;;;;;;;4.82;3.30;;;23.00;99.90;;;;;;4974106;28;20842;-91
2021/07/03 09:33:36;;;;;;;8.68;5.38;;;23.50;99.90;;;;;;4940720;28;20516;-90
2021/07/03 09:36:10;;;;;;;6.25;4.40;;;23.40;99.90;;;;;;4943175;28;21168;-90
2021/07/03 09:38:39;;;;;;;6.63;4.25;;;23.40;99.90;;;;;;4943922;28;20208;-90
2021/07/03 09:41:32;;;;;;;7.22;4.07;;;23.40;99.90;;;;;;4962302;28;20243;-89
2021/07/03 09:44:00;;;;;;;8.55;3.92;;;23.60;99.90;;;;;;4953555;28;20251;-90
2021/07/03 09:46:49;;;;;;;6.30;4.00;;;24.00;99.90;;;;;;4947226;28;20213;-90
2021/07/03 09:49:20;;;;;;;7.30;4.20;;;24.40;99.90;;;;;;4963286;28;20264;-90
2021/07/03 09:51:48;;;;;;;6.22;4.38;;;24.80;99.90;;;;;;4961164;28;20217;-91
2021/07/03 09:54:18;;;;;;;5.72;3.83;;;24.80;99.90;;;;;;4958569;28;20185;-91
2021/07/03 09:56:45;;;;;;;7.05;3.78;;;25.50;99.90;;;;;;4963201;28;20640;-90
2021/07/03 09:59:11;;;;;;;7.15;4.80;;;26.40;99.90;;;;;;4946108;28;20501;-91
2021/07/03 10:01:52;;;;;;;8.32;4.63;;;26.70;99.90;;;;;;4959406;28;20232;-91
2021/07/03 10:04:17;;;;;;;6.45;4.20;;;25.70;99.90;;;;;;4945644;28;20225;-90
2021/07/03 10:07:05;;;;;;;6.72;4.07;;;26.50;99.90;;;;;;4945103;28;20830;-89
2021/07/03 10:09:48;;;;;;;4.75;3.88;;;26.20;99.90;;;;;;4953152;28;20723;-89
2021/07/03 10:12:23;;;;;;;6.40;4.57;;;26.10;99.90;;;;;;4944775;28;20289;-90
2021/07/03 10:14:49;;;;;;;6.30;4.78;;;25.80;99.90;;;;;;4975812;28;20255;-91
2021/07/03 10:17:26;;;;;;;6.22;4.35;;;25.80;99.90;;;;;;4946379;28;20715;-89
2021/07/03 10:19:52;;;;;;;7.90;4.10;;;25.10;99.90;;;;;;4960734;28;20217;-88
2021/07/03 10:22:26;;;;;;;5.53;4.43;;;25.10;99.90;;;;;;4945403;28;20217;-89
2021/07/03 10:25:11;;;;;;;7.97;4.68;;;25.80;99.90;;;;;;4953788;28;20267;-88
2021/07/03 10:27:48;;;;;;;9.20;4.30;;;25.80;99.90;;;;;;4977007;28;20531;-89
2021/07/03 10:30:32;;;;;;;6.88;4.53;;;25.30;99.90;;;;;;4960938;28;20213;-88
2021/07/03 10:33:02;;;;;;;7.63;4.03;;;25.10;99.90;;;;;;4961804;28;20805;-88
2021/07/03 10:35:40;;;;;;;5.57;3.67;;;24.90;99.90;;;;;;4962399;28;20201;-88
2021/07/03 10:38:24;;;;;;;5.50;3.88;;;25.40;99.90;;;;;;4936374;28;20621;-89
2021/07/03 10:40:52;;;;;;;6.28;3.83;;;25.30;99.90;;;;;;4977530;28;20252;-89
2021/07/03 10:43:19;;;;;;;5.47;4.10;;;25.20;99.90;;;;;;4939129;28;20221;-89
2021/07/03 10:45:48;;;;;;;4.38;3.10;;;25.20;99.90;;;;;;4945348;28;20276;-89
2021/07/03 10:48:25;;;;;;;4.88;3.03;;;25.40;99.90;;;;;;4960880;28;20251;-89
2021/07/03 10:50:56;;;;;;;6.78;3.90;;;26.00;99.90;;;;;;4944427;28;20305;-91
2021/07/03 10:53:29;;;;;;;5.38;3.53;;;27.00;99.90;;;;;;4960682;28;20761;-88
2021/07/03 10:56:09;;;;;;;6.40;3.78;;;26.30;99.90;;;;;;4960178;28;20304;-90
2021/07/03 10:58:40;;;;;;;5.90;3.80;;;25.00;99.90;;;;;;4951201;28;20312;-88
2021/07/03 11:01:12;;;;;;;7.68;3.72;;;24.20;99.90;;;;;;4959872;28;20259;-88
2021/07/03 11:03:49;;;;;;;6.40;3.60;;;24.30;99.90;;;;;;4976950;28;20651;-91
2021/07/03 11:06:19;;;;;;;5.57;3.22;;;24.60;99.90;;;;;;4961408;28;20194;-89
2021/07/03 11:08:46;;;;;;;5.95;3.40;;;25.10;99.90;;;;;;4961653;28;20236;-87
2021/07/03 11:11:14;;;;;;;8.27;3.13;;;24.00;99.90;;;;;;4959820;28;21273;-88
2021/07/03 11:13:41;;;;;;;6.78;3.50;;;23.70;99.90;;;;;;4963865;28;20287;-84
2021/07/03 11:16:09;;;;;;;4.93;3.38;;;23.80;99.90;;;;;;4958878;28;20703;-84
2021/07/03 11:18:45;;;;;;;5.30;3.83;;;23.40;99.90;;;;;;4958537;28;20217;-85
2021/07/03 11:21:13;;;;;;;6.18;3.33;;;23.70;99.90;;;;;;4937220;28;21094;-87
2021/07/03 11:23:39;;;;;;;7.32;4.35;;;24.60;99.90;;;;;;4944142;28;20185;-85
2021/07/03 11:26:14;;;;;;;6.78;4.22;;;24.30;99.90;;;;;;4958659;28;20225;-87
2021/07/03 11:28:40;;;;;;;7.05;4.53;;;24.30;99.90;;;;;;4944615;28;20217;-85
2021/07/03 11:31:07;;;;;;;6.75;4.10;;;24.10;99.90;;;;;;4959119;28;20261;-88
2021/07/03 11:33:36;;;;;;;11.55;5.55;;;24.30;99.90;;;;;;4942846;28;20691;-90
2021/07/03 11:36:06;;;;;;;7.07;4.22;;;24.50;99.90;;;;;;4960720;28;20590;-90
2021/07/03 11:38:32;;;;;;;6.90;4.13;;;24.30;99.90;;;;;;4944652;28;20236;-91
2021/07/03 11:41:00;;;;;;;4.95;4.45;;;23.90;99.90;;;;;;4942843;28;20675;-86
2021/07/03 11:43:29;;;;;;;10.05;4.85;;;24.00;99.90;;;;;;4943883;28;20216;-87
2021/07/03 11:45:56;;;;;;;6.70;4.68;;;23.60;99.90;;;;;;4942775;28;20209;-87
2021/07/03 11:48:24;;;;;;;6.40;4.43;;;23.50;99.90;;;;;;4942960;28;20244;-89
2021/07/03 11:50:55;;;;;;;6.60;4.60;;;23.70;99.90;;;;;;4943227;29;20233;-89
2021/07/03 11:53:28;;;;;;;8.27;4.28;;;24.10;99.90;;;;;;4946975;28;20221;-86
2021/07/03 11:55:56;;;;;;;7.72;4.03;;;24.90;99.90;;;;;;4946000;28;20635;-88
2021/07/03 11:58:31;;;;;;;6.10;4.30;;;24.70;99.90;;;;;;4943147;28;20221;-89
2021/07/03 12:00:59;;;;;;;10.82;4.47;;;23.80;99.90;;;;;;4950904;28;20216;-86
2021/07/03 12:03:27;;;;;;;6.30;4.43;;;23.10;99.90;;;;;;4942317;28;20246;-87
2021/07/03 12:05:55;;;;;;;7.75;4.15;;;23.40;99.90;;;;;;4943076;28;20625;-86
2021/07/03 12:08:21;;;;;;;5.63;4.25;;;23.70;99.90;;;;;;4943590;28;20300;-87
2021/07/03 12:11:02;;;;;;;5.70;3.83;;;24.20;99.90;;;;;;4944128;28;20225;-86
2021/07/03 12:13:36;;;;;;;4.90;3.83;;;24.10;99.90;;;;;;4934369;28;20731;-87
2021/07/03 12:16:11;;;;;;;7.50;3.72;;;24.20;99.90;;;;;;4943083;28;20601;-87
2021/07/03 12:18:40;;;;;;;5.82;4.18;;;24.10;99.90;;;;;;4975201;28;20219;-87
2021/07/03 12:21:09;;;;;;;6.03;3.85;;;24.60;99.90;;;;;;4943970;28;20223;-87
2021/07/03 12:23:37;;;;;;;8.93;4.10;;;25.30;99.90;;;;;;4974410;28;20505;-89
2021/07/03 12:26:04;;;;;;;4.05;3.20;;;24.70;99.90;;;;;;4942046;28;20280;-88
2021/07/03 12:28:31;;;;;;;4.25;3.47;;;24.70;99.90;;;;;;4958735;28;20254;-86
2021/07/03 12:31:07;;;;;;;6.80;3.78;;;24.40;99.90;;;;;;4944417;28;20659;-87
2021/07/03 12:33:34;;;;;;;4.60;3.78;;;24.50;99.90;;;;;;4943221;28;20591;-87
2021/07/03 12:35:59;;;;;;;5.75;4.07;;;24.40;99.90;;;;;;4944058;28;20206;-87
2021/07/03 12:38:27;;;;;;;5.60;4.35;;;24.20;99.90;;;;;;4958359;28;20256;-88
2021/07/03 12:40:54;;;;;;;6.28;4.10;;;24.40;99.90;;;;;;4942384;28;20592;-88
2021/07/03 12:43:32;;;;;;;5.82;4.15;;;24.50;99.90;;;;;;4942491;28;20221;-88
2021/07/03 12:46:06;;;;;;;4.28;3.65;;;24.90;99.90;;;;;;4943230;28;20221;-91
2021/07/03 12:48:36;;;;;;;5.55;3.80;;;25.60;99.90;;;;;;4942082;28;20316;-87
2021/07/03 12:51:04;;;;;;;5.18;3.38;;;26.40;99.90;;;;;;4942202;28;20221;-88
2021/07/03 12:53:35;;;;;;;5.95;4.78;;;25.90;99.90;;;;;;4958113;28;20497;-92
2021/07/03 12:56:03;;;;;;;6.05;4.18;;;24.90;99.90;;;;;;4942556;28;20225;-92
2021/07/03 12:58:35;;;;;;;4.47;3.58;;;24.60;99.90;;;;;;4942938;28;20586;-89
2021/07/03 13:01:02;;;;;;;5.35;3.35;;;24.20;99.90;;;;;;4956736;28;20225;-89
2021/07/03 13:03:29;;;;;;;5.43;4.05;;;24.30;99.90;;;;;;4957377;28;20232;-89
2021/07/03 13:06:04;;;;;;;4.78;3.63;;;24.60;99.90;;;;;;4943176;28;20193;-90
2021/07/03 13:08:31;;;;;;;5.45;3.58;;;24.80;99.90;;;;;;4943141;28;20695;-89
2021/07/03 13:10:57;;;;;;;6.82;3.67;;;24.50;99.90;;;;;;4956766;28;20229;-91
2021/07/03 13:13:23;;;;;;;5.38;3.97;;;24.50;99.90;;;;;;4940518;28;20210;-89
2021/07/03 13:15:49;;;;;;;5.60;3.80;;;24.50;99.90;;;;;;4942524;28;20255;-89
2021/07/03 13:18:17;;;;;;;5.70;3.95;;;24.40;99.90;;;;;;4942587;28;20201;-88
2021/07/03 13:20:44;;;;;;;4.97;3.50;;;24.50;99.90;;;;;;4942750;28;20456;-89
2021/07/03 13:23:10;;;;;;;5.15;3.30;;;24.20;99.90;;;;;;4957327;28;20228;-88
2021/07/03 13:25:35;;;;;;;4.28;3.60;;;24.00;99.90;;;;;;4942429;28;20936;-91
2021/07/03 13:28:01;;;;;;;4.95;3.95;;;24.20;99.90;;;;;;4941621;28;20225;-91
2021/07/03 13:30:27;;;;;;;5.97;3.88;;;24.40;99.90;;;;;;4940895;28;20235;-89
2021/07/03 13:32:53;;;;;;;7.82;3.67;;;24.30;99.90;;;;;;4950730;28;20203;-88
2021/07/03 13:35:22;;;;;;;7.10;3.58;;;24.00;99.90;;;;;;4942616;28;20221;-88
2021/07/03 13:37:48;;;;;;;6.55;3.75;;;23.80;99.90;;;;;;4941667;28;20271;-89
2021/07/03 13:40:14;;;;;;;4.22;3.38;;;23.70;99.90;;;;;;4957869;28;20264;-89
2021/07/03 13:42:40;;;;;;;5.40;3.30;;;24.00;99.90;;;;;;4941624;28;20245;-89
2021/07/03 13:45:06;;;;;;;4.30;3.28;;;24.10;99.90;;;;;;4942615;28;20827;-89
2021/07/03 13:47:32;;;;;;;3.70;3.30;;;23.90;99.90;;;;;;4942945;28;20655;-88
2021/07/03 13:49:59;;;;;;;4.38;3.22;;;23.70;99.90;;;;;;4940949;28;20229;-89
2021/07/03 13:52:25;;;;;;;5.30;3.20;;;23.50;99.90;;;;;;4956469;28;20320;-89
2021/07/03 13:54:50;;;;;;;5.15;2.97;;;23.40;99.90;;;;;;4940472;28;20228;-90
2021/07/03 13:57:16;;;;;;;4.35;3.03;;;23.00;99.90;;;;;;4940844;28;20264;-87
2021/07/03 13:59:42;;;;;;;5.63;3.25;;;23.00;99.90;;;;;;4942871;28;20259;-89